LEIB/IBZ METAR and TAF weather

Enter ICAO airport designator
Station Type Date Time Source
LEIB METAR 2020/03/31 14:00 UTC NOAA

LEIB 311400Z 08009KT 040V120 9999 FEW015 18/14 Q1007 NOSIG


Station Type Date Time Source
LEIB Decoded METAR 2020/03/31 14:00 UTC NOAA

Ibiza / Es Codola, Spain (LEIB) 38-52N 001-23E 12M
Mar 31, 2020 - 10:00 AM EDT / 2020.03.31 1400 UTC
Wind: from the E (080 degrees) at 10 MPH (9 KT) (direction variable):0
Visibility: greater than 7 mile(s):0
Sky conditions: mostly clear
Temperature: 64 F (18 C)
Dew Point: 57 F (14 C)
Relative Humidity: 77%
Pressure (altimeter): 29.74 in. Hg (1007 hPa)
ob: LEIB 311400Z 08009KT 040V120 9999 FEW015 18/14 Q1007 NOSIG
cycle: 14

Station Type Date Time Source
LEIB TAF 2020/03/31 09:31 UTC NOAA

TAF LEIB 310800Z 3109/0109 07015KT 9999 FEW020 TX18/3112Z TN09/0106Z
TEMPO 3109/3111 08017G27KT
TEMPO 3109/3117 4000 SHRA FEW010TCU BKN020
BECMG 3112/3114 VRB04KT PROB40
TEMPO 3121/0103 27012KT

Example: see airport list